Time,TemperatureF,DewpointF,PressureIn,WindDirection,WindDirectionDegrees,WindSpeedMPH,WindSpeedGustMPH,Humidity,HourlyPrecipIn,Conditions,Clouds,dailyrainin,SolarRadiationWatts/m^2,SoftwareType,DateUTC
2013-08-27 00:08:00,62.0,61.0,-100.00,WNW,296,0.0,0.0,96,0.00,,,0.00,0.000000,,2013-08-27 04:08:00,
2013-08-27 00:11:00,62.0,61.0,-100.00,West,280,0.0,0.0,98,0.00,,,0.00,0.000000,,2013-08-27 04:11:00,
2013-08-27 00:47:00,62.0,61.0,-100.00,West,280,0.0,0.0,98,0.00,,,0.00,0.000000,,2013-08-27 04:47:00,
2013-08-27 00:54:00,62.0,61.0,-100.00,West,280,0.0,0.0,98,0.00,,,0.00,0.000000,,2013-08-27 04:54:00,
2013-08-27 01:05:00,62.0,61.0,-100.00,West,280,0.0,0.0,98,0.00,,,0.00,0.000000,,2013-08-27 05:05:00,
2013-08-27 01:11:00,61.0,60.0,-100.00,SW,230,0.0,0.0,98,0.00,,,0.00,0.000000,,2013-08-27 05:11:00,
2013-08-27 01:43:00,61.0,60.0,-100.00,SW,230,0.0,0.0,98,0.00,,,0.00,0.000000,,2013-08-27 05:43:00,
2013-08-27 01:52:00,61.0,60.0,-100.00,SW,230,0.0,0.0,98,0.00,,,0.00,0.000000,,2013-08-27 05:52:00,
2013-08-27 02:02:00,61.0,60.0,-100.00,SW,230,0.0,0.0,98,0.00,,,0.00,0.000000,,2013-08-27 06:02:00,
2013-08-27 02:11:00,61.0,60.0,-100.00,South,188,0.0,0.0,98,0.00,,,0.00,0.000000,,2013-08-27 06:11:00,
2013-08-27 02:42:00,61.0,60.0,-100.00,South,188,0.0,0.0,98,0.00,,,0.00,0.000000,,2013-08-27 06:42:00,
2013-08-27 02:52:00,61.0,60.0,-100.00,South,188,0.0,0.0,98,0.00,,,0.00,0.000000,,2013-08-27 06:52:00,
2013-08-27 03:02:00,61.0,60.0,-100.00,South,188,0.0,0.0,98,0.00,,,0.00,0.000000,,2013-08-27 07:02:00,
2013-08-27 03:11:00,61.0,60.0,-100.00,SSW,196,0.0,0.0,98,0.00,,,0.00,0.000000,,2013-08-27 07:11:00,
2013-08-27 03:42:00,61.0,60.0,-100.00,SSW,196,0.0,0.0,98,0.00,,,0.00,0.000000,,2013-08-27 07:42:00,
2013-08-27 03:52:00,61.0,60.0,-100.00,SSW,196,0.0,0.0,98,0.00,,,0.00,0.000000,,2013-08-27 07:52:00,
2013-08-27 04:02:00,61.0,60.0,-100.00,SSW,196,0.0,0.0,98,0.00,,,0.00,0.000000,,2013-08-27 08:02:00,
2013-08-27 04:11:00,62.0,62.0,-100.00,SE,144,0.0,0.0,99,0.00,,,0.00,0.000000,,2013-08-27 08:11:00,
2013-08-27 04:42:00,62.0,62.0,-100.00,SE,144,0.0,0.0,99,0.00,,,0.00,0.000000,,2013-08-27 08:42:00,
2013-08-27 04:52:00,62.0,62.0,-100.00,SE,144,0.0,0.0,99,0.00,,,0.00,0.000000,,2013-08-27 08:52:00,
2013-08-27 05:01:00,62.0,62.0,-100.00,SE,144,0.0,0.0,99,0.00,,,0.00,0.000000,,2013-08-27 09:01:00,
2013-08-27 05:11:00,61.0,61.0,-100.00,SE,134,0.0,0.0,99,0.00,,,0.00,0.000000,,2013-08-27 09:11:00,
2013-08-27 05:43:00,61.0,61.0,-100.00,SE,134,0.0,0.0,99,0.00,,,0.00,0.000000,,2013-08-27 09:43:00,
2013-08-27 05:54:00,61.0,61.0,-100.00,SE,134,0.0,0.0,99,0.00,,,0.00,0.000000,,2013-08-27 09:54:00,
2013-08-27 06:05:00,61.0,61.0,-100.00,SE,134,0.0,0.0,99,0.00,,,0.00,0.000000,,2013-08-27 10:05:00,
2013-08-27 06:11:00,61.0,61.0,-100.00,SW,216,0.0,0.0,99,0.00,,,0.00,0.000000,,2013-08-27 10:11:00,
2013-08-27 06:43:00,61.0,61.0,-100.00,SW,216,0.0,0.0,99,0.00,,,0.00,0.000000,,2013-08-27 10:43:00,
2013-08-27 06:53:00,61.0,61.0,-100.00,SW,216,0.0,0.0,99,0.00,,,0.00,0.000000,,2013-08-27 10:53:00,
2013-08-27 07:03:00,61.0,61.0,-100.00,SW,216,0.0,0.0,99,0.00,,,0.00,0.000000,,2013-08-27 11:03:00,
2013-08-27 07:11:00,62.0,62.0,-100.00,SSE,165,0.0,0.0,99,0.00,,,0.00,2.000000,,2013-08-27 11:11:00,
2013-08-27 07:42:00,62.0,62.0,-100.00,SSE,165,0.0,0.0,99,0.00,,,0.00,2.000000,,2013-08-27 11:42:00,
2013-08-27 07:52:00,62.0,62.0,-100.00,SSE,165,0.0,0.0,99,0.00,,,0.00,2.000000,,2013-08-27 11:52:00,
2013-08-27 08:02:00,62.0,62.0,-100.00,SSE,165,0.0,0.0,99,0.00,,,0.00,2.000000,,2013-08-27 12:02:00,
2013-08-27 08:11:00,63.0,63.0,-100.00,SSE,160,0.0,0.0,99,0.00,,,0.00,24.000000,,2013-08-27 12:11:00,
2013-08-27 08:42:00,63.0,63.0,-100.00,SSE,160,0.0,0.0,99,0.00,,,0.00,24.000000,,2013-08-27 12:42:00,
2013-08-27 08:52:00,63.0,63.0,-100.00,SSE,160,0.0,0.0,99,0.00,,,0.00,24.000000,,2013-08-27 12:52:00,
2013-08-27 09:01:00,63.0,63.0,-100.00,SSE,160,0.0,0.0,99,0.00,,,0.00,24.000000,,2013-08-27 13:01:00,
2013-08-27 09:11:00,66.0,66.0,-100.00,SW,236,0.0,0.0,99,0.00,,,0.00,84.000000,,2013-08-27 13:11:00,
2013-08-27 09:42:00,66.0,66.0,-100.00,SW,236,0.0,0.0,99,0.00,,,0.00,84.000000,,2013-08-27 13:42:00,
2013-08-27 09:52:00,66.0,66.0,-100.00,SW,236,0.0,0.0,99,0.00,,,0.00,84.000000,,2013-08-27 13:52:00,
2013-08-27 10:02:00,66.0,66.0,-100.00,SW,236,0.0,0.0,99,0.00,,,0.00,84.000000,,2013-08-27 14:02:00,
2013-08-27 10:11:00,69.0,69.0,-100.00,East,97,1.0,2.0,99,0.00,,,0.00,95.000000,,2013-08-27 14:11:00,
2013-08-27 10:42:00,69.0,69.0,-100.00,East,97,1.0,2.0,99,0.00,,,0.00,95.000000,,2013-08-27 14:42:00,
2013-08-27 10:53:00,69.0,69.0,-100.00,East,97,1.0,2.0,99,0.00,,,0.00,95.000000,,2013-08-27 14:53:00,
2013-08-27 11:01:00,69.0,69.0,-100.00,East,97,1.0,2.0,99,0.00,,,0.00,95.000000,,2013-08-27 15:01:00,
2013-08-27 11:11:00,78.0,72.0,-100.00,SE,132,3.0,6.0,82,0.00,,,0.00,524.000000,,2013-08-27 15:11:00,
2013-08-27 11:58:00,78.0,72.0,-100.00,SE,132,3.0,6.0,82,0.00,,,0.00,524.000000,,2013-08-27 15:58:00,
2013-08-27 12:09:00,78.0,72.0,-100.00,SE,132,3.0,6.0,82,0.00,,,0.00,524.000000,,2013-08-27 16:09:00,
2013-08-27 12:11:00,78.0,67.0,-100.00,ESE,122,3.0,7.0,70,0.00,,,0.00,580.000000,,2013-08-27 16:11:00,
2013-08-27 12:46:00,78.0,67.0,-100.00,ESE,122,3.0,7.0,70,0.00,,,0.00,580.000000,,2013-08-27 16:46:00,
2013-08-27 12:55:00,78.0,67.0,-100.00,ESE,122,3.0,7.0,70,0.00,,,0.00,580.000000,,2013-08-27 16:55:00,
2013-08-27 13:05:00,78.0,67.0,-100.00,ESE,122,3.0,7.0,70,0.00,,,0.00,580.000000,,2013-08-27 17:05:00,
2013-08-27 13:11:00,79.0,69.0,-100.00,ESE,108,3.0,6.0,72,0.00,,,0.00,619.000000,,2013-08-27 17:11:00,
2013-08-27 13:43:00,79.0,69.0,-100.00,ESE,108,3.0,6.0,72,0.00,,,0.00,619.000000,,2013-08-27 17:43:00,
2013-08-27 13:52:00,79.0,69.0,-100.00,ESE,108,3.0,6.0,72,0.00,,,0.00,619.000000,,2013-08-27 17:52:00,
2013-08-27 14:02:00,79.0,69.0,-100.00,ESE,108,3.0,6.0,72,0.00,,,0.00,619.000000,,2013-08-27 18:02:00,
2013-08-27 14:11:00,79.0,69.0,-100.00,ENE,76,2.0,6.0,71,0.00,,,0.00,446.000000,,2013-08-27 18:11:00,
2013-08-27 14:42:00,79.0,69.0,-100.00,ENE,76,2.0,6.0,71,0.00,,,0.00,446.000000,,2013-08-27 18:42:00,
2013-08-27 14:53:00,79.0,69.0,-100.00,ENE,76,2.0,6.0,71,0.00,,,0.00,446.000000,,2013-08-27 18:53:00,
2013-08-27 15:01:00,79.0,69.0,-100.00,ENE,76,2.0,6.0,71,0.00,,,0.00,446.000000,,2013-08-27 19:01:00,
2013-08-27 15:11:00,79.0,67.0,-100.00,SE,125,2.0,6.0,66,0.00,,,0.00,488.000000,,2013-08-27 19:11:00,
2013-08-27 15:42:00,79.0,67.0,-100.00,SE,125,2.0,6.0,66,0.00,,,0.00,488.000000,,2013-08-27 19:42:00,
2013-08-27 15:52:00,79.0,67.0,-100.00,SE,125,2.0,6.0,66,0.00,,,0.00,488.000000,,2013-08-27 19:52:00,
2013-08-27 16:02:00,79.0,67.0,-100.00,SE,125,2.0,6.0,66,0.00,,,0.00,488.000000,,2013-08-27 20:02:00,